createdAt,value
2023-10-10T00:00:39.132Z,16.18
2023-10-10T00:03:07.411Z,16.17
2023-10-10T00:05:37.522Z,16.14
2023-10-10T00:08:06.752Z,16.13
2023-10-10T00:10:38.316Z,16.20
2023-10-10T00:13:07.553Z,16.13
2023-10-10T00:15:35.654Z,16.14
2023-10-10T00:18:12.593Z,16.18
2023-10-10T00:20:42.454Z,16.11
2023-10-10T00:23:13.137Z,16.26
2023-10-10T00:25:43.383Z,16.15
2023-10-10T00:28:20.186Z,16.14
2023-10-10T00:30:46.941Z,16.15
2023-10-10T00:33:22.583Z,16.10
2023-10-10T00:35:49.179Z,16.18
2023-10-10T00:38:25.600Z,16.10
2023-10-10T00:40:53.131Z,16.13
2023-10-10T00:43:24.247Z,16.11
2023-10-10T00:45:55.975Z,16.08
2023-10-10T00:48:23.840Z,16.10
2023-10-10T00:50:54.334Z,16.05
2023-10-10T00:53:23.506Z,16.06
2023-10-10T00:55:57.263Z,16.00
2023-10-10T00:58:37.193Z,16.06
2023-10-10T01:01:11.737Z,16.06
2023-10-10T01:03:43.259Z,16.01
2023-10-10T01:06:27.099Z,16.06
2023-10-10T01:09:22.581Z,16.05
2023-10-10T01:11:50.302Z,16.01
2023-10-10T01:14:20.115Z,16.03
2023-10-10T01:16:48.995Z,16.09
2023-10-10T01:19:18.939Z,16.08
2023-10-10T01:21:51.709Z,16.10
2023-10-10T01:24:19.373Z,16.02
2023-10-10T01:26:46.558Z,16.02
2023-10-10T01:29:26.560Z,16.00
2023-10-10T01:31:54.709Z,16.07
2023-10-10T01:34:40.930Z,16.11
2023-10-10T01:37:16.966Z,16.04
2023-10-10T01:40:16.697Z,16.07
2023-10-10T01:42:52.610Z,16.03
2023-10-10T01:45:22.711Z,15.98
2023-10-10T01:47:58.678Z,15.97
2023-10-10T01:50:28.257Z,15.95
2023-10-10T01:52:57.332Z,16.00
2023-10-10T01:55:25.916Z,15.95
2023-10-10T01:57:53.840Z,15.91
2023-10-10T02:00:28.055Z,15.82
2023-10-10T02:02:56.821Z,15.89
2023-10-10T02:05:37.460Z,15.80
2023-10-10T02:08:25.887Z,15.80
2023-10-10T02:10:52.386Z,15.79
2023-10-10T02:13:19.453Z,15.73
2023-10-10T02:15:45.955Z,15.76
2023-10-10T02:18:15.466Z,15.66
2023-10-10T02:20:44.531Z,15.70
2023-10-10T02:23:24.016Z,15.52
2023-10-10T02:25:54.380Z,15.68
2023-10-10T02:28:21.976Z,15.72
2023-10-10T02:30:53.621Z,15.66
2023-10-10T02:33:20.435Z,15.65
2023-10-10T02:35:58.241Z,15.68
2023-10-10T02:38:41.241Z,15.69
2023-10-10T02:41:21.971Z,15.72
2023-10-10T02:43:58.322Z,15.67
2023-10-10T02:46:36.718Z,15.70
2023-10-10T02:49:15.677Z,15.68
2023-10-10T02:51:44.848Z,15.63
2023-10-10T02:54:28.113Z,15.73
2023-10-10T02:56:59.755Z,15.68
2023-10-10T02:59:33.457Z,15.68
2023-10-10T03:02:01.029Z,15.68
2023-10-10T03:04:46.701Z,15.69
2023-10-10T03:07:20.652Z,15.67
2023-10-10T03:10:07.049Z,15.69
2023-10-10T03:12:38.686Z,15.61
2023-10-10T03:15:26.231Z,15.65
2023-10-10T03:18:11.130Z,15.67
2023-10-10T03:21:00.485Z,15.69
2023-10-10T03:23:43.246Z,15.70
2023-10-10T03:26:20.712Z,15.65
2023-10-10T03:28:48.730Z,15.65
2023-10-10T03:31:25.884Z,15.70
2023-10-10T03:34:10.814Z,15.68
2023-10-10T03:36:47.114Z,15.69
2023-10-10T03:39:25.186Z,15.61
2023-10-10T03:42:10.888Z,15.68
2023-10-10T03:44:55.769Z,15.61
2023-10-10T03:47:40.705Z,15.58
2023-10-10T03:50:26.436Z,15.61
2023-10-10T03:53:11.703Z,15.57
2023-10-10T03:55:57.240Z,15.55
2023-10-10T03:58:42.070Z,15.61
2023-10-10T04:01:27.209Z,15.52
2023-10-10T04:04:12.206Z,15.51
2023-10-10T04:06:57.072Z,15.58
2023-10-10T04:09:41.942Z,15.57
2023-10-10T04:12:26.932Z,15.58
2023-10-10T04:15:11.898Z,15.50
2023-10-10T04:18:00.386Z,15.41
2023-10-10T04:20:45.823Z,15.43
2023-10-10T04:23:32.249Z,15.45
2023-10-10T04:26:21.481Z,15.39
2023-10-10T04:29:06.389Z,15.40
2023-10-10T04:31:51.489Z,15.42
2023-10-10T04:34:36.504Z,15.39
2023-10-10T04:37:21.561Z,15.31
2023-10-10T04:40:06.276Z,15.29
2023-10-10T04:42:51.141Z,15.29
2023-10-10T04:45:35.876Z,15.18
2023-10-10T04:48:21.890Z,15.17
2023-10-10T04:51:11.060Z,15.11
2023-10-10T04:53:58.987Z,15.14
2023-10-10T04:56:45.006Z,15.11
2023-10-10T04:59:30.344Z,15.11
2023-10-10T05:02:15.725Z,15.02
2023-10-10T05:05:00.911Z,15.01
2023-10-10T05:07:46.236Z,14.92
2023-10-10T05:10:31.214Z,14.95
2023-10-10T05:13:16.644Z,14.91
2023-10-10T05:16:01.589Z,14.85
2023-10-10T05:18:48.585Z,14.85
2023-10-10T05:21:35.325Z,14.85
2023-10-10T05:24:01.996Z,14.90
2023-10-10T05:26:31.681Z,14.70
2023-10-10T05:29:01.958Z,14.92
2023-10-10T05:31:31.731Z,14.95
2023-10-10T05:33:58.305Z,14.88
2023-10-10T05:36:25.828Z,14.91
2023-10-10T05:38:52.525Z,14.98
2023-10-10T05:41:20.913Z,14.98
2023-10-10T05:43:51.148Z,14.95
2023-10-10T05:46:18.391Z,14.95
2023-10-10T05:48:47.688Z,15.01
2023-10-10T05:51:15.111Z,14.95
2023-10-10T05:53:41.748Z,15.06
2023-10-10T05:56:14.802Z,15.10
2023-10-10T05:58:46.652Z,15.14
2023-10-10T06:01:14.787Z,15.15
2023-10-10T06:03:43.227Z,15.18
2023-10-10T06:06:13.666Z,15.23
2023-10-10T06:08:43.306Z,15.32
2023-10-10T06:11:17.047Z,15.37
2023-10-10T06:13:47.663Z,15.30
2023-10-10T06:16:16.131Z,15.40
2023-10-10T06:18:46.027Z,15.30
2023-10-10T06:21:13.548Z,15.49
2023-10-10T06:23:43.179Z,15.41
2023-10-10T06:26:10.137Z,15.43
2023-10-10T06:28:37.197Z,15.63
2023-10-10T06:31:11.902Z,15.61
2023-10-10T06:33:42.250Z,15.75
2023-10-10T06:36:24.435Z,15.82
2023-10-10T06:39:06.010Z,15.77
2023-10-10T06:41:41.349Z,15.80
2023-10-10T06:44:15.107Z,15.91
2023-10-10T06:46:43.027Z,15.86
2023-10-10T06:49:13.224Z,15.83
2023-10-10T06:51:41.134Z,15.88
2023-10-10T06:54:21.360Z,15.99
2023-10-10T06:57:06.023Z,15.81
2023-10-10T06:59:33.831Z,15.82
2023-10-10T07:02:19.350Z,15.67
2023-10-10T07:04:53.498Z,15.79
2023-10-10T07:07:21.732Z,15.79
2023-10-10T07:09:48.945Z,16.05
2023-10-10T07:12:17.422Z,16.06
2023-10-10T07:14:48.483Z,16.22
2023-10-10T07:17:15.933Z,16.19
2023-10-10T07:20:16.343Z,16.34
2023-10-10T07:22:43.324Z,16.32
2023-10-10T07:25:32.831Z,16.35
2023-10-10T07:28:02.365Z,16.40
2023-10-10T07:30:35.827Z,16.45
2023-10-10T07:33:05.422Z,16.46
2023-10-10T07:35:37.553Z,16.43
2023-10-10T07:38:04.761Z,16.65
2023-10-10T07:40:39.006Z,17.07
2023-10-10T07:43:08.540Z,17.46
2023-10-10T07:45:35.913Z,17.83
2023-10-10T07:48:03.753Z,18.15
2023-10-10T07:50:48.757Z,18.11
2023-10-10T07:53:18.457Z,17.95
2023-10-10T07:56:00.127Z,18.09
2023-10-10T07:58:51.979Z,18.37
2023-10-10T08:01:19.706Z,17.99
2023-10-10T08:03:48.167Z,18.16
2023-10-10T08:06:20.125Z,18.91
2023-10-10T08:08:50.031Z,19.28
2023-10-10T08:11:29.015Z,19.51
2023-10-10T08:13:55.453Z,19.77
2023-10-10T08:16:23.572Z,19.96
2023-10-10T08:18:53.944Z,19.88
2023-10-10T08:21:24.276Z,20.38
2023-10-10T08:23:57.864Z,20.93
2023-10-10T08:26:40.106Z,21.06
2023-10-10T08:29:11.310Z,20.65
2023-10-10T08:31:40.008Z,21.17
2023-10-10T08:34:10.087Z,21.16
2023-10-10T08:36:45.108Z,20.20
2023-10-10T08:39:17.888Z,21.18
2023-10-10T08:41:45.204Z,21.00
2023-10-10T08:44:16.497Z,20.63
2023-10-10T08:46:47.740Z,21.39
2023-10-10T08:49:15.751Z,21.11
2023-10-10T08:51:45.705Z,22.04
2023-10-10T08:54:19.878Z,22.54
2023-10-10T08:57:04.030Z,22.99
2023-10-10T08:59:32.699Z,22.02
2023-10-10T09:02:08.299Z,21.49
2023-10-10T09:04:35.304Z,22.29
2023-10-10T09:07:09.552Z,23.87
2023-10-10T09:09:41.060Z,23.11
2023-10-10T09:12:15.960Z,22.68
2023-10-10T09:14:52.870Z,23.96
2023-10-10T09:17:33.814Z,23.49
2023-10-10T09:20:23.750Z,23.83
2023-10-10T09:22:59.760Z,23.57
2023-10-10T09:25:33.091Z,22.92
2023-10-10T09:28:09.178Z,22.38
2023-10-10T09:30:41.732Z,21.46
2023-10-10T09:33:17.848Z,21.62
2023-10-10T09:35:50.359Z,20.62
2023-10-10T09:38:22.650Z,21.26
2023-10-10T09:40:59.616Z,20.63
2023-10-10T09:43:36.840Z,21.86
2023-10-10T09:46:20.536Z,21.39
2023-10-10T09:49:07.434Z,23.40
2023-10-10T09:51:55.436Z,22.55
2023-10-10T09:54:28.191Z,23.44
2023-10-10T09:56:55.924Z,23.13
2023-10-10T09:59:29.881Z,24.08
2023-10-10T10:02:02.175Z,23.10
2023-10-10T10:04:38.114Z,23.97
2023-10-10T10:07:16.840Z,24.06
2023-10-10T10:10:10.792Z,24.23
2023-10-10T10:13:14.618Z,24.82
2023-10-10T10:16:00.521Z,22.76
2023-10-10T10:18:45.491Z,23.46
2023-10-10T10:21:34.518Z,24.51
2023-10-10T10:24:27.544Z,24.02
2023-10-10T10:27:41.499Z,23.24
2023-10-10T10:30:20.781Z,24.11
2023-10-10T10:32:55.483Z,25.75
2023-10-10T10:35:23.644Z,25.24
2023-10-10T10:37:59.646Z,25.73
2023-10-10T10:40:44.615Z,25.96
2023-10-10T10:43:17.871Z,25.69
2023-10-10T10:45:46.493Z,25.87
2023-10-10T10:48:29.647Z,25.90
2023-10-10T10:51:43.608Z,24.41
2023-10-10T10:54:20.279Z,24.13
2023-10-10T10:56:51.603Z,25.33
2023-10-10T10:59:21.731Z,25.42
2023-10-10T11:01:53.792Z,24.56
2023-10-10T11:04:41.610Z,25.09
2023-10-10T11:07:27.690Z,25.07
2023-10-10T11:09:55.811Z,24.13
2023-10-10T11:12:32.892Z,24.99
2023-10-10T11:15:06.039Z,24.35
2023-10-10T11:17:39.280Z,24.39
2023-10-10T11:20:27.687Z,24.99
2023-10-10T11:22:56.667Z,25.10
2023-10-10T11:25:42.556Z,24.11
2023-10-10T11:28:23.762Z,23.83
2023-10-10T11:30:59.656Z,23.79
2023-10-10T11:33:50.951Z,25.27
2023-10-10T11:36:31.035Z,25.45
2023-10-10T11:39:15.786Z,25.62
2023-10-10T11:41:42.700Z,25.43
2023-10-10T11:44:09.199Z,26.29
2023-10-10T11:46:35.791Z,26.17
2023-10-10T11:49:02.374Z,26.21
2023-10-10T11:51:39.295Z,26.30
2023-10-10T11:54:06.114Z,27.17
2023-10-10T11:56:35.692Z,27.85
2023-10-10T11:59:10.943Z,27.71
2023-10-10T12:02:08.638Z,28.37
2023-10-10T12:04:37.937Z,27.85
2023-10-10T12:07:06.917Z,29.19
2023-10-10T12:09:34.395Z,27.90
2023-10-10T12:12:04.121Z,28.85
2023-10-10T12:14:32.222Z,28.80
2023-10-10T12:16:59.959Z,30.30
2023-10-10T12:19:37.393Z,29.47
2023-10-10T12:22:12.233Z,29.11
2023-10-10T12:24:40.677Z,29.02
2023-10-10T12:27:10.451Z,29.77
2023-10-10T12:29:41.168Z,30.42
2023-10-10T12:32:20.242Z,28.68
2023-10-10T12:34:48.452Z,29.33
2023-10-10T12:37:18.370Z,27.36
2023-10-10T12:39:46.025Z,28.53
2023-10-10T12:42:12.958Z,28.73
2023-10-10T12:44:39.460Z,29.88
2023-10-10T12:47:08.948Z,28.96
2023-10-10T12:49:45.672Z,29.48
2023-10-10T12:52:13.435Z,29.46
2023-10-10T12:54:42.847Z,28.96
2023-10-10T12:57:14.871Z,28.33
2023-10-10T12:59:47.230Z,28.36
2023-10-10T13:02:16.628Z,27.58
2023-10-10T13:04:47.983Z,28.76
2023-10-10T13:07:17.304Z,28.72
2023-10-10T13:09:44.617Z,27.64
2023-10-10T13:12:19.569Z,26.47
2023-10-10T13:14:51.785Z,26.89
2023-10-10T13:17:22.028Z,26.57
2023-10-10T13:19:49.977Z,25.79
2023-10-10T13:22:21.930Z,25.39
2023-10-10T13:24:50.014Z,25.71
2023-10-10T13:27:18.065Z,25.28
2023-10-10T13:29:44.773Z,25.26
2023-10-10T13:32:11.629Z,25.07
2023-10-10T13:34:38.969Z,25.49
2023-10-10T13:37:09.047Z,24.72
2023-10-10T13:39:45.511Z,25.02
2023-10-10T13:42:15.712Z,25.11
2023-10-10T13:44:43.072Z,24.89
2023-10-10T13:47:10.089Z,24.62
2023-10-10T13:49:45.774Z,24.77
2023-10-10T13:52:13.983Z,24.86
2023-10-10T13:54:40.539Z,24.97
2023-10-10T13:57:08.635Z,24.66
2023-10-10T13:59:35.127Z,24.39
2023-10-10T14:02:05.250Z,24.14
2023-10-10T14:04:46.861Z,24.35
2023-10-10T14:07:15.824Z,24.37
2023-10-10T14:09:59.690Z,24.44
2023-10-10T14:12:33.243Z,24.34
2023-10-10T14:15:01.014Z,24.60
2023-10-10T14:17:27.714Z,24.34
2023-10-10T14:19:54.377Z,24.29
2023-10-10T14:22:25.052Z,24.06
2023-10-10T14:24:53.644Z,23.96
2023-10-10T14:27:21.321Z,23.99
2023-10-10T14:29:49.134Z,23.69
2023-10-10T14:32:30.833Z,23.56
2023-10-10T14:35:01.877Z,23.63
2023-10-10T14:37:41.751Z,23.20
2023-10-10T14:40:18.791Z,23.14
2023-10-10T14:42:45.255Z,23.39
2023-10-10T14:45:13.961Z,22.88
2023-10-10T14:47:44.818Z,22.99
2023-10-10T14:50:14.181Z,22.91
2023-10-10T14:52:50.844Z,23.02
2023-10-10T14:55:26.806Z,22.78
2023-10-10T14:57:56.736Z,23.09
2023-10-10T15:00:29.431Z,23.12
2023-10-10T15:02:57.356Z,23.11
2023-10-10T15:05:27.690Z,22.95
2023-10-10T15:07:55.330Z,22.86
2023-10-10T15:10:30.181Z,22.93
2023-10-10T15:12:59.524Z,22.94
2023-10-10T15:15:26.179Z,22.94
2023-10-10T15:17:53.134Z,23.09
2023-10-10T15:20:19.870Z,22.96
2023-10-10T15:22:47.153Z,22.86
2023-10-10T15:25:13.881Z,22.67
2023-10-10T15:27:42.340Z,22.71
2023-10-10T15:30:10.168Z,22.64
2023-10-10T15:32:49.149Z,22.67
2023-10-10T15:35:18.151Z,22.56
2023-10-10T15:37:45.575Z,22.71
2023-10-10T15:40:22.383Z,22.70
2023-10-10T15:42:53.004Z,22.74
2023-10-10T15:45:22.593Z,22.74
2023-10-10T15:47:56.078Z,22.79
2023-10-10T15:50:22.974Z,22.51
2023-10-10T15:52:50.239Z,22.47
2023-10-10T15:55:24.838Z,22.46
2023-10-10T15:57:55.228Z,22.61
2023-10-10T16:00:33.153Z,22.56
2023-10-10T16:03:00.778Z,22.13
2023-10-10T16:05:27.832Z,22.20
2023-10-10T16:08:08.342Z,22.24
2023-10-10T16:10:39.525Z,22.17
2023-10-10T16:13:08.578Z,21.89
2023-10-10T16:15:35.583Z,21.63
2023-10-10T16:18:02.253Z,21.64
2023-10-10T16:20:28.889Z,21.59
2023-10-10T16:22:55.406Z,21.39
2023-10-10T16:25:24.273Z,21.23
2023-10-10T16:27:51.065Z,21.26
2023-10-10T16:30:18.259Z,21.28
2023-10-10T16:32:45.827Z,21.12
2023-10-10T16:35:12.821Z,21.06
2023-10-10T16:37:41.481Z,20.92
2023-10-10T16:40:09.944Z,20.96
2023-10-10T16:42:37.244Z,20.84
2023-10-10T16:45:04.613Z,20.84
2023-10-10T16:47:31.069Z,20.76
2023-10-10T16:49:57.582Z,20.78
2023-10-10T16:52:27.628Z,20.74
2023-10-10T16:54:54.889Z,20.61
2023-10-10T16:57:25.217Z,20.51
2023-10-10T16:59:53.448Z,20.51
2023-10-10T17:02:20.242Z,20.43
2023-10-10T17:04:46.903Z,20.43
2023-10-10T17:07:13.511Z,20.40
2023-10-10T17:09:40.200Z,20.39
2023-10-10T17:12:07.298Z,20.34
2023-10-10T17:14:38.061Z,20.28
2023-10-10T17:17:04.717Z,20.31
2023-10-10T17:19:34.860Z,20.27
2023-10-10T17:22:01.437Z,20.26
2023-10-10T17:24:27.974Z,20.25
2023-10-10T17:26:55.211Z,20.22
2023-10-10T17:29:25.112Z,20.22
2023-10-10T17:31:55.500Z,20.17
2023-10-10T17:34:26.242Z,20.18
2023-10-10T17:36:58.780Z,20.09
2023-10-10T17:39:25.838Z,20.16
2023-10-10T17:41:52.511Z,20.10
2023-10-10T17:44:20.226Z,20.10
2023-10-10T17:46:48.137Z,20.06
2023-10-10T17:49:15.242Z,19.97
2023-10-10T17:51:45.860Z,19.98
2023-10-10T17:54:12.878Z,19.93
2023-10-10T17:56:39.339Z,19.92
2023-10-10T17:59:07.380Z,19.78
2023-10-10T18:01:34.268Z,19.75
2023-10-10T18:04:04.173Z,19.74
2023-10-10T18:06:31.114Z,19.65
2023-10-10T18:09:02.299Z,19.65
2023-10-10T18:11:33.361Z,19.62
2023-10-10T18:14:03.277Z,19.62
2023-10-10T18:16:30.505Z,19.57
2023-10-10T18:18:58.190Z,19.38
2023-10-10T18:21:24.754Z,19.52
2023-10-10T18:23:51.249Z,19.49
2023-10-10T18:26:21.546Z,19.49
2023-10-10T18:28:48.147Z,19.48
2023-10-10T18:31:16.101Z,19.52
2023-10-10T18:33:43.454Z,19.46
2023-10-10T18:36:12.127Z,19.51
2023-10-10T18:38:39.654Z,19.40
2023-10-10T18:41:06.675Z,19.42
2023-10-10T18:43:33.438Z,19.42
2023-10-10T18:46:06.224Z,19.44
2023-10-10T18:48:38.225Z,19.43
2023-10-10T18:51:05.545Z,19.33
2023-10-10T18:53:32.235Z,19.26
2023-10-10T18:56:00.089Z,19.27
2023-10-10T18:58:27.453Z,19.20
2023-10-10T19:00:56.244Z,19.18
2023-10-10T19:03:23.800Z,19.13
2023-10-10T19:05:53.730Z,19.16
2023-10-10T19:08:21.228Z,19.05
2023-10-10T19:10:53.674Z,19.07
2023-10-10T19:13:21.371Z,19.01
2023-10-10T19:15:50.677Z,18.96
2023-10-10T19:18:17.504Z,18.85
2023-10-10T19:20:44.512Z,18.83
2023-10-10T19:23:11.895Z,18.72
2023-10-10T19:25:47.944Z,18.90
2023-10-10T19:28:18.643Z,18.81
2023-10-10T19:30:46.027Z,18.82
2023-10-10T19:33:15.734Z,18.83
2023-10-10T19:35:46.101Z,18.76
2023-10-10T19:38:13.373Z,18.65
2023-10-10T19:40:44.816Z,18.63
2023-10-10T19:43:14.166Z,18.56
2023-10-10T19:45:41.652Z,18.52
2023-10-10T19:48:08.728Z,18.50
2023-10-10T19:50:49.771Z,18.44
2023-10-10T19:53:17.338Z,18.41
2023-10-10T19:55:45.349Z,18.42
2023-10-10T19:58:13.694Z,18.47
2023-10-10T20:00:43.108Z,18.47
2023-10-10T20:03:11.074Z,18.45
2023-10-10T20:05:38.651Z,18.56
2023-10-10T20:08:15.562Z,18.52
2023-10-10T20:10:48.587Z,18.59
2023-10-10T20:13:18.218Z,18.56
2023-10-10T20:15:45.370Z,18.55
2023-10-10T20:18:16.232Z,18.48
2023-10-10T20:20:43.033Z,18.42
2023-10-10T20:23:13.608Z,18.36
2023-10-10T20:25:41.440Z,18.22
2023-10-10T20:28:11.643Z,18.17
2023-10-10T20:30:44.421Z,18.20
2023-10-10T20:33:16.595Z,18.05
2023-10-10T20:35:45.471Z,18.02
2023-10-10T20:38:20.354Z,17.94
2023-10-10T20:40:48.442Z,18.01
2023-10-10T20:43:14.992Z,17.86
2023-10-10T20:45:41.578Z,17.90
2023-10-10T20:48:09.883Z,17.80
2023-10-10T20:50:42.025Z,17.83
2023-10-10T20:53:10.861Z,17.73
2023-10-10T20:55:37.723Z,17.80
2023-10-10T20:58:05.210Z,17.71
2023-10-10T21:00:32.039Z,17.66
2023-10-10T21:03:07.043Z,17.45
2023-10-10T21:05:35.420Z,17.56
2023-10-10T21:08:03.480Z,17.53
2023-10-10T21:10:33.042Z,17.53
2023-10-10T21:12:59.580Z,17.29
2023-10-10T21:15:26.189Z,17.34
2023-10-10T21:17:54.929Z,17.29
2023-10-10T21:20:30.226Z,17.14
2023-10-10T21:22:59.502Z,17.18
2023-10-10T21:25:27.248Z,17.28
2023-10-10T21:27:57.521Z,17.33
2023-10-10T21:30:25.422Z,17.36
2023-10-10T21:32:52.145Z,17.40
2023-10-10T21:35:23.616Z,17.42
2023-10-10T21:37:50.122Z,17.39
2023-10-10T21:40:24.109Z,17.36
2023-10-10T21:42:52.531Z,17.34
2023-10-10T21:45:20.626Z,17.52
2023-10-10T21:47:49.034Z,17.41
2023-10-10T21:50:18.013Z,17.42
2023-10-10T21:52:46.821Z,17.34
2023-10-10T21:55:21.387Z,17.74
2023-10-10T21:57:52.899Z,17.69
2023-10-10T22:00:45.659Z,18.01
2023-10-10T22:03:12.385Z,18.10
2023-10-10T22:05:39.101Z,18.01
2023-10-10T22:08:08.022Z,17.98
2023-10-10T22:10:35.108Z,18.13
2023-10-10T22:13:02.516Z,18.17
2023-10-10T22:15:29.400Z,18.07
2023-10-10T22:17:58.743Z,18.24
2023-10-10T22:20:33.019Z,18.35
2023-10-10T22:22:59.692Z,18.17
2023-10-10T22:25:27.747Z,18.06
2023-10-10T22:27:57.910Z,18.27
2023-10-10T22:30:27.977Z,18.33
2023-10-10T22:32:56.216Z,18.19
2023-10-10T22:35:23.328Z,18.31
2023-10-10T22:37:51.561Z,18.24
2023-10-10T22:40:18.872Z,18.24
2023-10-10T22:42:45.527Z,18.25
2023-10-10T22:45:12.284Z,18.29
2023-10-10T22:47:41.314Z,18.37
2023-10-10T22:50:08.756Z,18.35
2023-10-10T22:52:38.804Z,18.32
2023-10-10T22:55:08.493Z,18.32
2023-10-10T22:57:38.082Z,18.61
2023-10-10T23:00:15.178Z,18.54
2023-10-10T23:02:49.408Z,18.41
2023-10-10T23:05:17.962Z,18.47
2023-10-10T23:07:46.247Z,18.37
2023-10-10T23:10:13.758Z,18.35
2023-10-10T23:12:41.824Z,18.37
2023-10-10T23:15:12.871Z,18.33
2023-10-10T23:17:51.400Z,18.37
2023-10-10T23:20:21.337Z,18.33
2023-10-10T23:22:48.596Z,18.25
2023-10-10T23:25:18.974Z,18.27
2023-10-10T23:27:46.859Z,18.20
2023-10-10T23:30:14.211Z,18.24
2023-10-10T23:32:45.244Z,18.22
2023-10-10T23:35:12.306Z,18.25
2023-10-10T23:37:41.553Z,18.47
2023-10-10T23:40:14.736Z,18.35
2023-10-10T23:42:45.109Z,18.42
2023-10-10T23:45:16.361Z,18.28
2023-10-10T23:47:46.048Z,18.45
2023-10-10T23:50:13.455Z,18.34
2023-10-10T23:52:45.927Z,18.30
2023-10-10T23:55:17.716Z,18.35
2023-10-10T23:57:46.617Z,18.43
